Time;durP1;ratioP1;P1;durP2;ratioP2;P2;SDS_P1;SDS_P2;PMS_P1;PMS_P2;Temp;Humidity;BMP_temperature;BMP_pressure;BME280_temperature;BME280_humidity;BME280_pressure;Samples;Min_cycle;Max_cycle;Signal;HPM_P1;HPM_P2
2021/08/02 00:01:10;;;;;;;;;1.00;1.00;;;;;19.58;56.52;101092.25;5023856;28;46649;-82
2021/08/02 00:03:50;;;;;;;;;2.00;1.00;;;;;19.58;56.13;101102.97;5017675;28;45555;-81
2021/08/02 00:06:25;;;;;;;;;1.00;1.00;;;;;19.55;56.11;101103.38;5027738;28;45571;-82
2021/08/02 00:09:04;;;;;;;;;1.50;1.50;;;;;19.53;56.88;101094.69;5026955;28;45486;-82
2021/08/02 00:11:38;;;;;;;;;0.75;0.75;;;;;19.50;56.88;101098.59;5023922;28;46452;-81
2021/08/02 00:14:05;;;;;;;;;1.50;1.25;;;;;19.47;56.91;101096.31;5023273;28;45491;-82
2021/08/02 00:16:31;;;;;;;;;3.00;1.25;;;;;19.47;57.28;101095.50;5016420;28;45711;-81
2021/08/02 00:18:57;;;;;;;;;1.25;0.75;;;;;19.43;56.69;101091.56;5023447;28;45483;-82
2021/08/02 00:21:22;;;;;;;;;1.50;1.00;;;;;19.38;57.33;101094.84;5027139;28;45514;-82
2021/08/02 00:23:48;;;;;;;;;0.75;0.75;;;;;19.33;57.01;101091.91;5026716;28;45545;-82
2021/08/02 00:26:13;;;;;;;;;1.00;1.00;;;;;19.30;56.91;101095.00;5024805;28;45920;-81
2021/08/02 00:28:40;;;;;;;;;0.25;0.25;;;;;19.28;57.09;101091.69;5023951;28;45598;-82
2021/08/02 00:31:05;;;;;;;;;1.00;1.00;;;;;19.24;57.64;101085.91;5024022;28;45605;-81
2021/08/02 00:33:31;;;;;;;;;3.00;1.00;;;;;19.22;58.04;101098.69;5025060;28;45900;-82
2021/08/02 00:36:07;;;;;;;;;0.75;0.75;;;;;19.17;57.54;101087.72;5026980;28;45444;-81
2021/08/02 00:38:40;;;;;;;;;2.00;1.25;;;;;19.16;58.05;101098.63;5023308;28;45487;-82
2021/08/02 00:41:15;;;;;;;;;1.00;1.00;;;;;19.15;58.67;101100.47;5023413;28;46178;-81
2021/08/02 00:44:08;;;;;;;;;0.75;0.75;;;;;19.13;58.76;101092.63;5005923;28;45927;-82
2021/08/02 00:46:40;;;;;;;;;1.00;0.75;;;;;19.13;58.44;101091.81;5019813;28;45782;-81
2021/08/02 00:49:08;;;;;;;;;2.50;1.00;;;;;19.10;58.64;101090.34;4999395;28;45760;-82
2021/08/02 00:51:38;;;;;;;;;1.00;1.00;;;;;19.11;58.81;101100.06;5009356;28;47562;-83
2021/08/02 00:54:05;;;;;;;;;1.00;1.00;;;;;19.10;58.97;101092.22;5028292;28;45611;-81
2021/08/02 00:56:34;;;;;;;;;1.00;1.00;;;;;19.07;59.27;101089.94;5026676;28;45329;-82
2021/08/02 00:59:06;;;;;;;;;2.00;2.00;;;;;19.05;58.47;101095.47;5003910;28;45490;-81
2021/08/02 01:01:36;;;;;;;;;2.50;1.75;;;;;19.06;58.70;101091.75;5005975;28;47540;-82
2021/08/02 01:04:02;;;;;;;;;0.75;0.75;;;;;19.03;59.05;101094.84;5004953;28;45541;-81
2021/08/02 01:06:32;;;;;;;;;0.75;0.75;;;;;19.01;59.13;101096.06;5026385;28;45555;-82
2021/08/02 01:09:04;;;;;;;;;1.50;1.00;;;;;19.00;58.86;101091.75;5027624;28;45496;-82
2021/08/02 01:11:31;;;;;;;;;2.75;2.50;;;;;18.98;58.88;101091.94;5019741;28;47265;-82
2021/08/02 01:13:57;;;;;;;;;1.00;1.00;;;;;18.95;59.36;101094.19;5007862;28;45505;-82
2021/08/02 01:16:25;;;;;;;;;0.50;0.50;;;;;18.91;58.97;101085.69;5022919;28;45443;-82
2021/08/02 01:18:52;;;;;;;;;2.00;2.00;;;;;18.88;59.33;101086.91;5020196;28;45697;-82
2021/08/02 01:21:20;;;;;;;;;3.00;2.00;;;;;18.84;59.44;101084.81;5027732;28;46425;-82
2021/08/02 01:23:47;;;;;;;;;1.75;1.75;;;;;18.82;59.58;101093.06;5022885;28;45423;-82
2021/08/02 01:26:43;;;;;;;;;2.00;0.50;;;;;18.80;59.39;101088.94;5022628;28;45438;-82
2021/08/02 01:29:46;;;;;;;;;0.75;0.75;;;;;18.75;59.87;101099.38;5017884;28;45471;-82
2021/08/02 01:32:16;;;;;;;;;0.75;0.75;;;;;18.68;59.91;101099.31;5019125;28;46363;-81
2021/08/02 01:34:42;;;;;;;;;2.25;1.75;;;;;18.60;60.13;101094.91;5004195;28;45415;-82
2021/08/02 01:37:09;;;;;;;;;1.00;1.00;;;;;18.55;60.20;101093.84;5023562;28;45702;-82
2021/08/02 01:39:35;;;;;;;;;1.50;1.50;;;;;18.52;60.48;101091.53;5008342;28;45598;-82
2021/08/02 01:42:03;;;;;;;;;2.50;2.50;;;;;18.47;60.29;101100.13;5007880;28;47949;-83
2021/08/02 01:44:29;;;;;;;;;1.50;1.50;;;;;18.42;60.79;101103.41;5023121;28;45592;-82
2021/08/02 01:47:10;;;;;;;;;3.25;1.50;;;;;18.38;60.87;101101.31;5021898;28;45522;-82
2021/08/02 01:49:41;;;;;;;;;3.00;1.75;;;;;18.33;61.09;101103.75;5016017;28;45625;-82
2021/08/02 01:52:24;;;;;;;;;1.75;1.75;;;;;18.26;60.98;101101.81;5006609;28;48020;-81
2021/08/02 01:54:55;;;;;;;;;2.75;2.75;;;;;18.22;61.33;101097.88;5022260;28;45652;-82
2021/08/02 01:57:34;;;;;;;;;3.50;2.50;;;;;18.16;61.29;101093.28;5024313;28;45354;-81
2021/08/02 02:00:11;;;;;;;;;3.00;3.00;;;;;18.15;61.87;101099.66;5026119;28;46303;-82
2021/08/02 02:02:39;;;;;;;;;1.50;1.50;;;;;18.09;61.64;101096.91;5022788;28;46726;-82
2021/08/02 02:05:16;;;;;;;;;3.00;2.00;;;;;18.06;61.86;101106.13;5022965;28;45665;-82
2021/08/02 02:07:49;;;;;;;;;4.00;4.00;;;;;18.01;62.65;101105.88;5021999;28;45645;-82
2021/08/02 02:10:19;;;;;;;;;4.00;2.25;;;;;17.99;62.06;101102.56;5022123;28;45496;-82
2021/08/02 02:12:47;;;;;;;;;3.50;3.50;;;;;17.96;62.15;101108.28;5022849;28;45727;-82
2021/08/02 02:15:13;;;;;;;;;4.00;3.00;;;;;17.94;62.34;101105.78;5028585;28;45449;-81
2021/08/02 02:17:39;;;;;;;;;2.50;2.50;;;;;17.90;62.37;101109.84;5020941;28;45630;-81
2021/08/02 02:20:06;;;;;;;;;4.00;3.00;;;;;17.89;62.58;101104.72;5021229;28;45431;-82
2021/08/02 02:22:33;;;;;;;;;3.75;3.00;;;;;17.88;62.47;101111.91;5022926;28;45534;-82
2021/08/02 02:24:59;;;;;;;;;2.75;2.25;;;;;17.84;62.54;101105.28;5003976;28;45554;-82
2021/08/02 02:27:26;;;;;;;;;6.00;3.50;;;;;17.82;62.61;101101.97;5026451;28;45549;-82
2021/08/02 02:29:53;;;;;;;;;5.75;3.75;;;;;17.80;62.86;101098.63;5025467;28;45623;-81
2021/08/02 02:32:19;;;;;;;;;2.50;2.50;;;;;17.76;63.26;101106.19;5021907;28;45551;-82
2021/08/02 02:34:47;;;;;;;;;4.00;4.00;;;;;17.76;63.10;101098.16;5022417;28;45564;-82
2021/08/02 02:37:14;;;;;;;;;6.00;3.50;;;;;17.71;63.15;101097.91;5021534;28;45485;-82
2021/08/02 02:39:41;;;;;;;;;3.00;3.00;;;;;17.70;63.03;101092.72;5024688;28;51423;-82
2021/08/02 02:42:07;;;;;;;;;3.25;3.25;;;;;17.67;63.34;101093.94;5027020;28;45561;-81
2021/08/02 02:44:35;;;;;;;;;3.00;3.00;;;;;17.62;63.39;101088.31;5005363;28;46324;-81
2021/08/02 02:47:01;;;;;;;;;4.00;3.25;;;;;17.61;63.38;101102.72;5025717;28;45574;-81
2021/08/02 02:49:29;;;;;;;;;3.25;2.50;;;;;17.58;63.21;101095.91;5026238;28;45494;-82
2021/08/02 02:51:56;;;;;;;;;3.00;2.75;;;;;17.56;62.95;101100.59;5024963;28;45534;-82
2021/08/02 02:54:22;;;;;;;;;3.00;3.00;;;;;17.52;64.09;101098.47;5032122;28;45468;-82
2021/08/02 02:56:48;;;;;;;;;3.00;3.00;;;;;17.52;64.22;101101.16;5025211;28;45635;-82
2021/08/02 02:59:14;;;;;;;;;3.00;3.00;;;;;17.49;64.17;101106.88;5008265;28;45544;-82
2021/08/02 03:01:43;;;;;;;;;6.00;3.25;;;;;17.45;63.82;101103.72;5024323;28;46247;-81
2021/08/02 03:04:10;;;;;;;;;5.75;3.75;;;;;17.42;64.26;101102.25;5006752;28;45579;-81
2021/08/02 03:06:35;;;;;;;;;4.00;4.00;;;;;17.39;64.14;101102.63;5028671;28;45578;-82
2021/08/02 03:09:03;;;;;;;;;5.00;2.00;;;;;17.36;64.40;101099.50;5012623;28;45781;-81
2021/08/02 03:11:30;;;;;;;;;2.75;2.75;;;;;17.33;64.89;101098.03;5026558;28;46487;-82
2021/08/02 03:13:56;;;;;;;;;6.50;3.75;;;;;17.32;64.96;101103.56;5017542;28;45593;-82
2021/08/02 03:16:24;;;;;;;;;2.75;2.75;;;;;17.29;64.72;101103.94;5024738;28;46109;-82
2021/08/02 03:18:49;;;;;;;;;5.75;4.00;;;;;17.27;64.85;101098.75;5028500;28;45865;-82
2021/08/02 03:21:16;;;;;;;;;4.00;4.00;;;;;17.25;65.03;101103.47;5031293;28;45575;-81
2021/08/02 03:23:49;;;;;;;;;4.75;3.75;;;;;17.24;64.61;101101.00;5007294;28;45652;-82
2021/08/02 03:26:21;;;;;;;;;3.75;2.25;;;;;17.20;65.53;101111.19;5025029;28;50000;-82
2021/08/02 03:28:53;;;;;;;;;5.00;4.00;;;;;17.19;65.63;101105.03;5023760;28;45468;-82
2021/08/02 03:31:28;;;;;;;;;4.75;4.50;;;;;17.18;65.40;101110.53;5016229;28;48533;-81
2021/08/02 03:33:55;;;;;;;;;4.25;4.25;;;;;17.15;65.41;101101.06;5026188;28;45784;-82
2021/08/02 03:36:23;;;;;;;;;7.00;4.00;;;;;17.16;65.32;101109.91;5026940;28;45525;-82
2021/08/02 03:38:50;;;;;;;;;4.00;4.00;;;;;17.15;65.55;101116.25;5009713;28;45648;-82
2021/08/02 03:41:19;;;;;;;;;5.00;5.00;;;;;17.13;65.58;101118.28;5023172;28;45684;-81
2021/08/02 03:43:45;;;;;;;;;4.75;3.50;;;;;17.10;66.15;101124.00;5023826;28;45549;-82
2021/08/02 03:46:12;;;;;;;;;4.75;3.00;;;;;17.06;66.19;101122.69;5023666;28;45392;-81
2021/08/02 03:48:38;;;;;;;;;3.50;3.00;;;;;17.08;65.79;101129.50;5025859;28;45462;-82
2021/08/02 03:51:05;;;;;;;;;5.25;5.25;;;;;17.07;65.77;101124.38;5028801;28;45551;-82
2021/08/02 03:53:41;;;;;;;;;9.00;5.00;;;;;17.08;65.93;101131.34;5022512;28;45522;-82
2021/08/02 03:56:08;;;;;;;;;8.25;4.00;;;;;17.06;66.05;101126.22;5006058;28;45704;-82
2021/08/02 03:58:33;;;;;;;;;7.50;5.00;;;;;17.07;66.42;101135.88;5026732;28;45474;-82
2021/08/02 04:00:59;;;;;;;;;5.00;4.00;;;;;17.08;66.53;101131.34;5024071;28;46579;-81
2021/08/02 04:03:24;;;;;;;;;5.75;5.00;;;;;17.06;66.46;101125.38;5028948;28;45443;-82
2021/08/02 04:05:49;;;;;;;;;6.00;5.00;;;;;17.05;66.52;101126.38;5008478;28;45570;-82
2021/08/02 04:08:15;;;;;;;;;5.00;5.00;;;;;17.07;66.75;101132.38;5022498;28;45784;-83
2021/08/02 04:10:40;;;;;;;;;5.25;5.25;;;;;17.04;67.06;101133.56;5023702;28;46300;-82
2021/08/02 04:13:05;;;;;;;;;7.00;5.75;;;;;17.03;67.27;101133.75;5025662;28;45565;-82
2021/08/02 04:15:31;;;;;;;;;6.25;5.50;;;;;17.03;67.18;101141.75;5009778;28;45503;-81
2021/08/02 04:17:56;;;;;;;;;4.25;4.25;;;;;17.02;67.00;101134.78;5027323;28;45580;-83
2021/08/02 04:20:22;;;;;;;;;5.50;4.50;;;;;17.02;67.39;101140.09;5023157;28;45621;-83
2021/08/02 04:22:48;;;;;;;;;7.00;6.00;;;;;17.02;67.02;101150.78;5026147;28;45558;-82
2021/08/02 04:25:14;;;;;;;;;6.50;5.00;;;;;16.98;67.22;101144.97;5024944;28;55767;-81
2021/08/02 04:27:39;;;;;;;;;7.25;5.00;;;;;16.95;67.63;101148.00;5023141;28;45511;-81
2021/08/02 04:30:05;;;;;;;;;5.25;5.00;;;;;16.95;67.55;101148.81;5020853;28;46164;-81
2021/08/02 04:32:30;;;;;;;;;5.75;5.75;;;;;16.96;68.03;101166.53;5024707;28;45465;-82
2021/08/02 04:34:55;;;;;;;;;6.00;4.50;;;;;16.97;67.91;101162.00;5022692;28;45586;-81
2021/08/02 04:37:21;;;;;;;;;7.50;6.75;;;;;16.96;67.71;101160.34;5024160;28;45759;-81
2021/08/02 04:39:46;;;;;;;;;5.75;5.00;;;;;16.97;67.53;101167.34;5021616;28;45528;-81
2021/08/02 04:42:12;;;;;;;;;8.00;5.75;;;;;16.98;68.05;101166.31;5027013;28;46967;-81
2021/08/02 04:44:37;;;;;;;;;6.25;5.50;;;;;17.00;67.66;101161.63;5023884;28;45531;-81
2021/08/02 04:47:02;;;;;;;;;7.75;6.25;;;;;17.02;67.76;101164.13;5025375;28;45483;-82
2021/08/02 04:49:28;;;;;;;;;6.00;5.00;;;;;17.03;67.73;101166.59;5022502;28;46007;-82
2021/08/02 04:51:53;;;;;;;;;5.00;5.00;;;;;17.05;68.28;101156.59;5026538;28;45448;-81
2021/08/02 04:54:18;;;;;;;;;6.25;6.00;;;;;17.04;68.43;101159.44;5029004;28;45535;-81
2021/08/02 04:56:44;;;;;;;;;5.75;5.00;;;;;17.10;68.80;101161.38;5005632;28;45982;-81
2021/08/02 04:59:09;;;;;;;;;7.25;5.50;;;;;17.10;68.23;101158.72;5023104;28;46359;-81
2021/08/02 05:01:34;;;;;;;;;7.00;5.00;;;;;17.13;68.25;101155.66;5004610;28;46086;-82
2021/08/02 05:04:00;;;;;;;;;7.75;7.75;;;;;17.15;68.40;101165.16;5023887;28;45453;-80
2021/08/02 05:06:25;;;;;;;;;5.00;5.00;;;;;17.16;68.34;101157.97;5026043;28;45494;-80
2021/08/02 05:08:50;;;;;;;;;4.25;4.25;;;;;17.20;68.06;101161.94;4991474;28;47219;-80
2021/08/02 05:11:16;;;;;;;;;3.75;3.75;;;;;17.26;67.62;101161.22;5022398;28;50070;-80
2021/08/02 05:13:43;;;;;;;;;8.00;5.50;;;;;17.32;68.08;101165.00;5022570;28;46047;-81
2021/08/02 05:16:08;;;;;;;;;7.50;6.00;;;;;17.37;68.01;101173.28;5023648;28;45555;-81
2021/08/02 05:18:34;;;;;;;;;6.50;6.00;;;;;17.46;68.53;101177.53;5023436;28;46212;-81
2021/08/02 05:20:59;;;;;;;;;10.00;7.00;;;;;17.53;68.04;101174.94;5027264;28;50168;-80
2021/08/02 05:23:25;;;;;;;;;9.25;6.75;;;;;17.60;68.17;101176.69;5008992;28;45469;-81
2021/08/02 05:25:50;;;;;;;;;7.25;7.00;;;;;17.69;67.63;101182.78;5004920;28;45679;-81
2021/08/02 05:28:20;;;;;;;;;11.75;7.00;;;;;17.72;67.45;101171.72;5021310;28;45757;-80
2021/08/02 05:30:46;;;;;;;;;8.75;7.00;;;;;17.80;67.36;101179.69;5024708;28;45532;-81
2021/08/02 05:33:12;;;;;;;;;8.00;7.00;;;;;17.93;67.67;101168.31;5027127;28;45574;-81
2021/08/02 05:35:40;;;;;;;;;4.75;4.75;;;;;18.11;67.08;101180.47;5004876;28;50050;-80
2021/08/02 05:38:06;;;;;;;;;6.25;5.00;;;;;18.32;66.79;101179.66;5028817;28;45450;-81
2021/08/02 05:40:31;;;;;;;;;4.00;4.00;;;;;18.53;66.37;101174.31;5024997;28;45635;-80
2021/08/02 05:42:56;;;;;;;;;7.25;4.75;;;;;18.74;65.47;101178.84;5019643;28;45625;-81
2021/08/02 05:45:22;;;;;;;;;4.00;4.00;;;;;18.92;65.02;101183.78;5027469;28;45602;-81
2021/08/02 05:47:47;;;;;;;;;5.00;4.00;;;;;19.06;64.27;101174.81;5022208;28;45554;-82
2021/08/02 05:50:13;;;;;;;;;4.50;3.00;;;;;19.22;64.25;101172.88;5025450;28;45487;-82
2021/08/02 05:52:41;;;;;;;;;4.50;4.50;;;;;19.36;63.78;101176.44;5022523;28;45602;-81
2021/08/02 05:55:06;;;;;;;;;6.00;4.00;;;;;19.50;63.40;101184.38;5026280;28;45469;-80
2021/08/02 05:57:32;;;;;;;;;6.25;4.75;;;;;19.62;63.23;101189.19;5023851;28;46513;-80
2021/08/02 05:59:57;;;;;;;;;3.50;3.50;;;;;19.69;63.67;101187.41;5026303;28;45419;-81
2021/08/02 06:02:22;;;;;;;;;3.25;2.75;;;;;19.75;63.13;101186.59;5018405;28;46559;-81
2021/08/02 06:04:48;;;;;;;;;6.25;3.50;;;;;19.82;62.89;101195.50;5023893;28;45884;-81
2021/08/02 06:07:13;;;;;;;;;6.00;3.75;;;;;19.86;62.69;101195.97;5023230;28;46474;-84
2021/08/02 06:09:39;;;;;;;;;2.75;2.50;;;;;19.91;62.73;101197.00;5021895;28;45931;-84
2021/08/02 06:12:04;;;;;;;;;3.75;3.00;;;;;19.96;61.73;101197.22;5025299;28;45568;-79
2021/08/02 06:14:29;;;;;;;;;3.25;3.25;;;;;20.03;62.41;101199.97;5022897;28;45600;-82
2021/08/02 06:16:55;;;;;;;;;3.25;3.00;;;;;20.10;61.97;101195.44;5001498;28;50151;-82
2021/08/02 06:19:20;;;;;;;;;2.50;2.50;;;;;20.15;61.66;101192.97;5010087;28;45447;-84
2021/08/02 06:21:45;;;;;;;;;3.25;3.25;;;;;20.24;61.22;101187.44;5005550;28;45552;-81
2021/08/02 06:24:11;;;;;;;;;6.00;4.25;;;;;20.31;60.89;101199.84;5026400;28;45531;-82
2021/08/02 06:26:37;;;;;;;;;3.75;3.00;;;;;20.36;60.85;101197.38;5025733;28;46157;-82
2021/08/02 06:29:03;;;;;;;;;5.50;3.50;;;;;20.46;61.07;101196.16;5025490;28;45739;-83
2021/08/02 06:31:28;;;;;;;;;4.25;3.00;;;;;20.56;60.21;101204.66;5024750;28;45821;-82
2021/08/02 06:33:54;;;;;;;;;2.00;2.00;;;;;20.65;60.15;101211.50;5027220;28;45417;-82
2021/08/02 06:36:21;;;;;;;;;4.00;4.00;;;;;20.71;59.88;101205.31;5028641;28;45622;-82
2021/08/02 06:38:49;;;;;;;;;4.00;4.00;;;;;20.74;59.69;101204.88;5009959;28;45789;-82
2021/08/02 06:41:15;;;;;;;;;5.00;2.00;;;;;20.79;59.54;101204.28;5026339;28;45426;-82
2021/08/02 06:43:43;;;;;;;;;4.00;3.50;;;;;20.86;59.69;101209.66;5025352;28;45519;-82
2021/08/02 06:46:09;;;;;;;;;4.50;3.25;;;;;20.92;59.55;101207.00;5026985;28;45743;-82
2021/08/02 06:48:36;;;;;;;;;3.50;3.50;;;;;20.99;59.14;101212.34;5009327;28;45516;-82
2021/08/02 06:51:01;;;;;;;;;6.25;5.25;;;;;21.08;59.24;101208.41;5028804;28;45478;-82
2021/08/02 06:53:27;;;;;;;;;3.50;3.00;;;;;21.23;58.94;101202.84;5007985;28;45663;-82
2021/08/02 06:55:52;;;;;;;;;4.75;2.50;;;;;21.36;58.90;101202.81;5022310;28;46599;-82
2021/08/02 06:58:18;;;;;;;;;4.25;4.25;;;;;21.47;58.72;101212.16;5022705;28;45632;-82
2021/08/02 07:00:44;;;;;;;;;5.00;4.00;;;;;21.55;58.12;101211.91;5026908;28;53761;-82
2021/08/02 07:03:09;;;;;;;;;5.00;5.00;;;;;21.62;57.45;101209.22;5010684;28;45583;-82
2021/08/02 07:05:35;;;;;;;;;5.00;4.50;;;;;21.58;57.41;101214.16;5006428;28;45375;-83
2021/08/02 07:08:00;;;;;;;;;8.50;5.00;;;;;21.67;57.55;101214.78;5024478;28;45549;-82
2021/08/02 07:10:26;;;;;;;;;5.25;5.25;;;;;21.81;57.63;101211.03;5025922;28;45526;-82
2021/08/02 07:12:51;;;;;;;;;4.00;4.00;;;;;22.00;56.75;101211.97;5024771;28;45444;-82
2021/08/02 07:15:17;;;;;;;;;5.25;5.00;;;;;22.14;54.95;101212.75;5007429;28;47296;-82
2021/08/02 07:17:42;;;;;;;;;7.00;4.75;;;;;22.15;55.22;101214.38;5015207;28;45373;-82
2021/08/02 07:20:08;;;;;;;;;7.75;4.50;;;;;22.21;55.57;101210.06;5023866;28;45486;-82
2021/08/02 07:22:33;;;;;;;;;4.00;4.00;;;;;22.28;56.44;101214.38;5009181;28;47673;-82
2021/08/02 07:24:59;;;;;;;;;5.75;4.00;;;;;22.35;56.19;101216.19;5025079;28;45507;-82
2021/08/02 07:27:25;;;;;;;;;5.00;5.00;;;;;22.38;56.16;101218.44;5028458;28;46926;-82
2021/08/02 07:29:51;;;;;;;;;5.00;4.00;;;;;22.39;55.23;101223.63;5005669;28;45605;-82
2021/08/02 07:32:21;;;;;;;;;4.25;4.00;;;;;22.37;54.73;101214.13;5023108;28;45929;-82
2021/08/02 07:34:46;;;;;;;;;5.00;5.00;;;;;22.35;55.34;101211.63;5026124;28;47400;-82
2021/08/02 07:37:12;;;;;;;;;5.50;5.00;;;;;22.31;55.55;101215.81;5024443;28;45676;-82
2021/08/02 07:39:37;;;;;;;;;8.75;5.00;;;;;22.29;55.29;101217.88;5007021;28;45674;-82
2021/08/02 07:42:03;;;;;;;;;5.25;4.50;;;;;22.23;54.79;101216.03;5027877;28;45426;-80
2021/08/02 07:44:29;;;;;;;;;5.75;3.75;;;;;22.13;55.37;101219.16;5002467;28;48179;-83
2021/08/02 07:46:54;;;;;;;;;4.75;4.00;;;;;22.11;55.30;101210.50;5020949;28;45654;-83
2021/08/02 07:49:20;;;;;;;;;5.50;4.00;;;;;22.05;55.08;101212.16;5004272;28;45577;-84
2021/08/02 07:51:45;;;;;;;;;5.00;2.50;;;;;22.01;55.14;101218.19;5024730;28;45679;-84
2021/08/02 07:54:11;;;;;;;;;6.50;4.25;;;;;22.02;54.73;101217.16;5029601;28;46413;-84
2021/08/02 07:56:37;;;;;;;;;5.25;5.00;;;;;22.11;55.43;101219.38;5009350;28;45592;-83
2021/08/02 07:59:03;;;;;;;;;5.50;4.25;;;;;22.35;55.69;101219.69;5009191;28;45578;-83
2021/08/02 08:01:28;;;;;;;;;6.50;5.00;;;;;22.60;54.12;101221.63;5024590;28;45578;-83
2021/08/02 08:03:54;;;;;;;;;5.00;4.25;;;;;22.74;55.11;101217.81;5024832;28;47370;-83
2021/08/02 08:06:19;;;;;;;;;3.75;3.00;;;;;22.95;54.46;101212.06;5026826;28;45576;-82
2021/08/02 08:08:44;;;;;;;;;6.00;2.00;;;;;23.13;53.41;101218.56;5019550;28;46625;-82
2021/08/02 08:11:11;;;;;;;;;5.75;4.00;;;;;23.23;53.69;101210.81;5022733;28;45470;-83
2021/08/02 08:13:37;;;;;;;;;5.25;4.50;;;;;23.42;53.41;101205.44;5021408;28;46292;-82
2021/08/02 08:16:03;;;;;;;;;6.00;4.75;;;;;23.50;52.96;101208.66;5005002;28;45751;-83
2021/08/02 08:18:29;;;;;;;;;5.00;4.00;;;;;23.46;48.90;101209.34;5027415;28;45472;-82
2021/08/02 08:20:58;;;;;;;;;4.00;4.00;;;;;23.13;50.94;101214.00;5010181;28;46635;-81
2021/08/02 08:23:24;;;;;;;;;6.25;4.00;;;;;23.03;51.65;101211.00;5008477;28;48128;-83
2021/08/02 08:25:49;;;;;;;;;6.00;4.50;;;;;23.18;53.32;101206.06;5006154;28;45458;-83
2021/08/02 08:28:14;;;;;;;;;6.00;5.00;;;;;23.50;52.15;101207.84;5020594;28;45572;-82
2021/08/02 08:30:40;;;;;;;;;4.25;3.75;;;;;23.83;52.20;101204.81;5008585;28;45542;-83
2021/08/02 08:33:05;;;;;;;;;4.00;4.00;;;;;24.19;51.17;101205.81;5025444;28;46291;-83
2021/08/02 08:35:30;;;;;;;;;4.75;4.00;;;;;24.55;51.75;101210.31;5029047;28;46117;-83
2021/08/02 08:37:56;;;;;;;;;4.50;3.00;;;;;24.90;50.29;101206.88;5026333;28;45657;-83
2021/08/02 08:40:22;;;;;;;;;7.00;4.00;;;;;25.18;49.76;101210.81;5023951;28;45608;-83
2021/08/02 08:42:49;;;;;;;;;3.50;3.50;;;;;25.33;48.83;101204.94;5003943;28;48288;-83
2021/08/02 08:45:15;;;;;;;;;4.00;3.00;;;;;25.59;49.13;101207.09;5009196;28;45555;-84
2021/08/02 08:47:40;;;;;;;;;4.00;3.00;;;;;25.82;48.22;101211.66;5023965;28;45502;-83
2021/08/02 08:50:08;;;;;;;;;6.25;3.00;;;;;26.00;46.97;101209.88;5025659;28;45578;-83
2021/08/02 08:52:35;;;;;;;;;3.75;3.75;;;;;26.09;48.13;101208.44;5022394;28;45707;-83
2021/08/02 08:55:05;;;;;;;;;3.00;3.00;;;;;26.68;47.37;101209.00;5026639;28;45609;-84
2021/08/02 08:57:30;;;;;;;;;3.00;3.00;;;;;27.02;46.22;101201.69;5009617;28;45578;-83
2021/08/02 08:59:55;;;;;;;;;4.75;4.00;;;;;27.30;45.64;101212.69;5026681;28;45441;-83
2021/08/02 09:02:26;;;;;;;;;5.00;3.25;;;;;27.62;45.27;101205.56;5010282;28;47046;-83
2021/08/02 09:04:56;;;;;;;;;4.25;3.00;;;;;27.84;45.43;101207.47;5021777;28;45818;-83
2021/08/02 09:07:38;;;;;;;;;4.00;4.00;;;;;28.30;44.63;101205.28;5024039;28;45672;-83
2021/08/02 09:10:12;;;;;;;;;4.00;4.00;;;;;28.57;43.28;101207.19;5017774;28;45600;-83
2021/08/02 09:12:58;;;;;;;;;5.25;4.00;;;;;28.80;43.08;101208.75;5030661;28;47743;-83
2021/08/02 09:15:31;;;;;;;;;4.75;3.00;;;;;28.79;41.95;101216.09;5025463;28;45515;-81
2021/08/02 09:17:57;;;;;;;;;4.00;3.25;;;;;28.49;42.25;101217.47;5006853;28;45554;-82
2021/08/02 09:20:24;;;;;;;;;7.50;3.75;;;;;28.33;40.98;101221.06;5020779;28;45609;-83
2021/08/02 09:22:51;;;;;;;;;3.00;2.00;;;;;28.32;43.17;101207.75;5020531;28;47549;-91
2021/08/02 09:25:20;;;;;;;;;6.00;3.00;;;;;28.47;42.06;101219.59;5021105;28;45645;-85
2021/08/02 09:27:46;;;;;;;;;3.00;3.00;;;;;28.59;41.48;101213.19;5022079;28;45553;-82
2021/08/02 09:30:26;;;;;;;;;5.00;5.00;;;;;28.62;41.49;101213.50;5026623;28;45563;-83
2021/08/02 09:33:08;;;;;;;;;5.25;3.50;;;;;28.85;41.32;101212.31;5006856;28;46695;-83
2021/08/02 09:35:39;;;;;;;;;4.00;3.00;;;;;29.20;41.01;101210.97;5025585;28;45627;-82
2021/08/02 09:38:09;;;;;;;;;2.00;2.00;;;;;29.72;40.41;101217.53;5024249;28;45430;-83
2021/08/02 09:40:37;;;;;;;;;3.50;3.00;;;;;30.17;40.62;101210.63;5023613;28;45582;-86
2021/08/02 09:43:03;;;;;;;;;4.25;4.00;;;;;30.43;39.97;101215.03;5009333;28;47989;-81
2021/08/02 09:45:45;;;;;;;;;3.50;3.50;;;;;30.82;39.42;101210.97;5011455;28;45613;-84
2021/08/02 09:48:14;;;;;;;;;7.25;4.00;;;;;31.26;38.56;101215.84;5008865;28;45407;-83
2021/08/02 09:50:40;;;;;;;;;3.00;3.00;;;;;31.52;37.74;101210.34;5010781;28;45590;-83
2021/08/02 09:53:06;;;;;;;;;2.00;2.00;;;;;31.96;37.12;101223.31;5024777;28;46547;-83
2021/08/02 09:55:31;;;;;;;;;6.75;4.50;;;;;32.25;36.59;101213.28;5022474;28;45516;-83
2021/08/02 09:57:56;;;;;;;;;3.50;3.00;;;;;32.52;37.34;101212.84;5024695;28;45518;-83
2021/08/02 10:00:22;;;;;;;;;3.00;2.00;;;;;32.76;36.28;101207.47;5010770;28;45840;-83
2021/08/02 10:02:50;;;;;;;;;2.00;1.75;;;;;32.97;36.17;101204.53;5008692;28;47251;-84
2021/08/02 10:05:17;;;;;;;;;2.00;2.00;;;;;33.06;34.02;101212.94;5008107;28;45490;-83
2021/08/02 10:07:44;;;;;;;;;2.25;2.00;;;;;32.41;34.70;101207.72;5023903;28;45596;-83
2021/08/02 10:10:11;;;;;;;;;4.00;2.25;;;;;32.03;35.50;101207.41;5022548;28;45869;-83
2021/08/02 10:12:48;;;;;;;;;2.00;1.00;;;;;31.82;35.50;101209.38;5006443;28;47465;-83
2021/08/02 10:15:16;;;;;;;;;1.00;1.00;;;;;31.53;35.91;101203.78;5025927;28;45758;-85
2021/08/02 10:18:03;;;;;;;;;4.25;2.00;;;;;31.29;35.62;101207.09;5022432;28;45539;-80
2021/08/02 10:20:34;;;;;;;;;0.50;0.50;;;;;31.01;35.38;101206.63;5024129;28;47545;-84
2021/08/02 10:23:01;;;;;;;;;3.75;2.00;;;;;30.48;35.88;101206.03;5023306;28;45747;-83
2021/08/02 10:25:33;;;;;;;;;3.25;3.25;;;;;29.90;36.63;101200.72;5020933;28;45794;-83
2021/08/02 10:28:25;;;;;;;;;2.00;2.00;;;;;29.54;37.28;101205.16;5015747;28;45564;-83
2021/08/02 10:31:05;;;;;;;;;2.75;2.25;;;;;29.26;37.85;101212.63;5001787;28;45736;-81
2021/08/02 10:33:38;;;;;;;;;1.25;1.25;;;;;29.12;38.06;101206.00;5023143;28;46260;-81
2021/08/02 10:36:18;;;;;;;;;4.50;3.00;;;;;28.92;37.60;101203.94;5025201;28;45581;-80
2021/08/02 10:38:51;;;;;;;;;1.75;0.75;;;;;28.70;37.97;101209.47;5019614;28;45568;-80
2021/08/02 10:41:24;;;;;;;;;1.50;1.00;;;;;28.51;34.56;101201.72;5026663;28;45503;-82
2021/08/02 10:43:49;;;;;;;;;2.00;2.00;;;;;28.36;37.04;101209.66;5019671;28;46200;-81
2021/08/02 10:46:23;;;;;;;;;3.25;3.25;;;;;28.18;37.09;101199.97;5023144;28;45541;-81
2021/08/02 10:48:51;;;;;;;;;4.00;3.00;;;;;28.18;38.88;101205.41;5005731;28;45504;-81
2021/08/02 10:51:24;;;;;;;;;1.75;1.75;;;;;28.38;38.91;101199.38;5029887;28;45475;-81
2021/08/02 10:54:16;;;;;;;;;5.25;4.75;;;;;29.00;38.85;101187.13;5005239;28;48453;-81
2021/08/02 10:56:41;;;;;;;;;1.50;0.75;;;;;29.55;37.80;101198.63;5015960;28;45551;-81
2021/08/02 10:59:07;;;;;;;;;2.25;2.25;;;;;30.07;38.06;101195.06;5023961;28;45613;-82
2021/08/02 11:01:36;;;;;;;;;2.25;0.75;;;;;30.76;36.38;101192.94;5022874;28;45582;-81
2021/08/02 11:04:12;;;;;;;;;2.25;0.50;;;;;31.49;36.15;101195.31;5021540;28;46665;-81
2021/08/02 11:06:38;;;;;;;;;1.00;1.00;;;;;32.34;34.48;101192.44;5010029;28;45662;-82
2021/08/02 11:09:03;;;;;;;;;1.00;1.00;;;;;32.75;34.32;101197.59;5030612;28;45580;-81
2021/08/02 11:11:31;;;;;;;;;2.00;1.00;;;;;33.05;33.13;101195.72;5005376;28;45778;-81
2021/08/02 11:14:21;;;;;;;;;2.00;1.25;;;;;33.32;33.46;101194.34;5025115;28;46639;-83
2021/08/02 11:16:53;;;;;;;;;1.50;1.00;;;;;33.54;32.17;101196.53;5009969;28;45719;-82
2021/08/02 11:19:21;;;;;;;;;1.50;1.50;;;;;33.57;31.89;101194.06;5025954;28;45570;-82
2021/08/02 11:22:07;;;;;;;;;3.00;2.25;;;;;33.48;32.48;101193.03;5013635;28;45848;-83
2021/08/02 11:24:36;;;;;;;;;1.00;1.00;;;;;33.71;32.51;101185.94;5028192;28;47356;-83
2021/08/02 11:27:10;;;;;;;;;4.50;3.25;;;;;33.84;32.48;101185.19;5011636;28;45549;-84
2021/08/02 11:29:36;;;;;;;;;2.00;1.75;;;;;33.71;32.52;101190.63;5010616;28;45586;-83